createdAt,value
2022-11-04T00:01:59.112Z,25.80
2022-11-04T00:03:58.943Z,25.83
2022-11-04T00:05:59.000Z,25.86
2022-11-04T00:07:59.036Z,25.81
2022-11-04T00:09:59.090Z,25.83
2022-11-04T00:11:58.990Z,25.79
2022-11-04T00:13:58.948Z,25.79
2022-11-04T00:15:58.998Z,25.78
2022-11-04T00:17:59.024Z,25.94
2022-11-04T00:19:59.043Z,25.83
2022-11-04T00:21:58.893Z,25.83
2022-11-04T00:23:59.033Z,25.82
2022-11-04T00:25:58.948Z,25.65
2022-11-04T00:27:59.049Z,25.78
2022-11-04T00:29:58.968Z,25.77
2022-11-04T00:31:59.035Z,25.80
2022-11-04T00:33:58.919Z,25.80
2022-11-04T00:35:59.071Z,25.72
2022-11-04T00:37:59.056Z,25.80
2022-11-04T00:39:59.013Z,25.77
2022-11-04T00:41:59.079Z,25.72
2022-11-04T00:43:59.069Z,25.78
2022-11-04T00:45:59.080Z,25.72
2022-11-04T00:47:58.979Z,25.80
2022-11-04T00:49:59.012Z,25.80
2022-11-04T00:51:59.258Z,25.80
2022-11-04T00:53:58.936Z,25.47
2022-11-04T00:55:59.109Z,25.75
2022-11-04T00:57:58.969Z,25.75
2022-11-04T00:59:59.092Z,25.75
2022-11-04T01:01:59.248Z,25.80
2022-11-04T01:03:59.105Z,25.74
2022-11-04T01:05:58.996Z,25.80
2022-11-04T01:07:59.114Z,25.84
2022-11-04T01:09:59.114Z,25.74
2022-11-04T01:11:59.122Z,25.72
2022-11-04T01:13:58.981Z,25.65
2022-11-04T01:15:59.218Z,25.64
2022-11-04T01:17:59.042Z,25.72
2022-11-04T01:19:59.005Z,25.80
2022-11-04T01:21:59.130Z,25.65
2022-11-04T01:23:59.131Z,25.76
2022-11-04T01:25:59.100Z,25.74
2022-11-04T01:27:59.061Z,25.79
2022-11-04T01:29:59.130Z,25.80
2022-11-04T01:31:59.145Z,25.72
2022-11-04T01:33:59.101Z,25.75
2022-11-04T01:35:59.009Z,25.65
2022-11-04T01:37:59.172Z,25.76
2022-11-04T01:39:59.077Z,25.77
2022-11-04T01:41:59.134Z,25.80
2022-11-04T01:43:59.198Z,25.81
2022-11-04T01:45:59.122Z,25.74
2022-11-04T01:47:59.164Z,25.86
2022-11-04T01:49:59.103Z,25.80
2022-11-04T01:51:59.041Z,25.78
2022-11-04T01:53:59.070Z,25.80
2022-11-04T01:55:59.156Z,25.74
2022-11-04T01:57:59.162Z,25.80
2022-11-04T01:59:59.192Z,25.82
2022-11-04T02:01:59.290Z,25.81
2022-11-04T02:03:59.181Z,25.75
2022-11-04T02:05:59.105Z,25.81
2022-11-04T02:07:59.110Z,25.74
2022-11-04T02:09:59.200Z,25.75
2022-11-04T02:11:59.164Z,25.72
2022-11-04T02:13:59.154Z,25.80
2022-11-04T02:15:59.279Z,25.77
2022-11-04T02:17:59.187Z,25.80
2022-11-04T02:19:59.211Z,25.65
2022-11-04T02:21:59.187Z,25.78
2022-11-04T02:23:59.196Z,25.75
2022-11-04T02:25:59.191Z,25.75
2022-11-04T02:27:59.142Z,25.80
2022-11-04T02:29:59.204Z,25.72
2022-11-04T02:31:59.179Z,25.84
2022-11-04T02:33:59.239Z,25.72
2022-11-04T02:35:59.244Z,25.75
2022-11-04T02:37:59.176Z,25.79
2022-11-04T02:39:59.189Z,25.81
2022-11-04T02:41:59.189Z,25.76
2022-11-04T02:43:59.225Z,25.77
2022-11-04T02:45:59.221Z,25.83
2022-11-04T02:47:59.204Z,25.65
2022-11-04T02:49:59.149Z,25.65
2022-11-04T02:51:59.240Z,25.65
2022-11-04T02:53:59.242Z,25.65
2022-11-04T02:55:59.244Z,25.77
2022-11-04T02:57:59.288Z,25.72
2022-11-04T02:59:59.160Z,25.77
2022-11-04T03:01:59.245Z,25.79
2022-11-04T03:03:59.188Z,25.75
2022-11-04T03:05:59.233Z,25.80
2022-11-04T03:07:59.173Z,25.80
2022-11-04T03:09:59.254Z,25.83
2022-11-04T03:11:59.273Z,25.80
2022-11-04T03:13:59.206Z,25.89
2022-11-04T03:15:59.090Z,25.80
2022-11-04T03:17:59.154Z,25.71
2022-11-04T03:19:59.113Z,25.81
2022-11-04T03:21:59.258Z,25.75
2022-11-04T03:23:59.274Z,25.77
2022-11-04T03:25:59.194Z,25.77
2022-11-04T03:27:59.135Z,25.75
2022-11-04T03:29:59.270Z,25.65
2022-11-04T03:31:59.223Z,25.75
2022-11-04T03:33:59.137Z,25.65
2022-11-04T03:35:59.275Z,25.65
2022-11-04T03:37:59.287Z,25.75
2022-11-04T03:39:59.256Z,25.65
2022-11-04T03:41:59.278Z,25.75
2022-11-04T03:43:59.294Z,25.75
2022-11-04T03:45:59.306Z,25.82
2022-11-04T03:47:59.299Z,25.80
2022-11-04T03:49:59.280Z,25.83
2022-11-04T03:51:59.290Z,25.65
2022-11-04T03:53:59.315Z,25.78
2022-11-04T03:55:59.260Z,25.78
2022-11-04T03:57:59.194Z,25.75
2022-11-04T03:59:59.274Z,25.81
2022-11-04T04:01:59.423Z,25.79
2022-11-04T04:03:59.328Z,25.81
2022-11-04T04:05:59.325Z,25.65
2022-11-04T04:07:59.300Z,25.72
2022-11-04T04:09:59.321Z,25.74
2022-11-04T04:11:59.177Z,25.80
2022-11-04T04:13:59.256Z,25.80
2022-11-04T04:15:59.152Z,25.75
2022-11-04T04:17:59.331Z,25.72
2022-11-04T04:19:59.323Z,25.65
2022-11-04T04:21:59.320Z,25.75
2022-11-04T04:23:59.318Z,25.80
2022-11-04T04:25:59.393Z,25.72
2022-11-04T04:27:59.230Z,25.49
2022-11-04T04:29:59.360Z,25.65
2022-11-04T04:31:59.311Z,25.72
2022-11-04T04:33:59.256Z,25.65
2022-11-04T04:35:59.217Z,25.78
2022-11-04T04:37:59.364Z,25.71
2022-11-04T04:39:59.207Z,25.78
2022-11-04T04:41:59.317Z,25.72
2022-11-04T04:43:59.331Z,25.80
2022-11-04T04:45:59.356Z,25.79
2022-11-04T04:47:59.327Z,25.80
2022-11-04T04:49:59.353Z,25.78
2022-11-04T04:51:59.352Z,25.71
2022-11-04T04:53:59.365Z,25.79
2022-11-04T04:55:59.278Z,25.75
2022-11-04T04:57:59.320Z,25.78
2022-11-04T04:59:59.390Z,25.76
2022-11-04T05:01:59.440Z,25.74
2022-11-04T05:03:59.384Z,25.72
2022-11-04T05:05:59.314Z,25.79
2022-11-04T05:07:59.330Z,25.80
2022-11-04T05:09:59.367Z,25.77
2022-11-04T05:11:59.294Z,25.79
2022-11-04T05:13:59.365Z,25.79
2022-11-04T05:15:59.394Z,25.77
2022-11-04T05:17:59.401Z,25.80
2022-11-04T05:19:59.410Z,25.84
2022-11-04T05:21:59.372Z,25.83
2022-11-04T05:23:59.370Z,25.78
2022-11-04T05:25:59.333Z,25.65
2022-11-04T05:27:59.307Z,25.73
2022-11-04T05:29:59.367Z,25.65
2022-11-04T05:31:59.364Z,25.72
2022-11-04T05:33:59.427Z,25.80
2022-11-04T05:35:59.407Z,25.64
2022-11-04T05:37:59.310Z,25.80
2022-11-04T05:39:59.427Z,25.65
2022-11-04T05:41:59.449Z,25.72
2022-11-04T05:43:59.297Z,25.76
2022-11-04T05:45:59.367Z,25.78
2022-11-04T05:47:59.328Z,25.74
2022-11-04T05:49:59.376Z,25.65
2022-11-04T05:51:59.363Z,25.77
2022-11-04T05:53:59.462Z,24.79
2022-11-04T05:55:59.366Z,24.64
2022-11-04T05:57:59.469Z,24.69
2022-11-04T05:59:59.426Z,24.42
2022-11-04T06:01:59.656Z,24.37
2022-11-04T06:03:59.373Z,24.48
2022-11-04T06:05:59.355Z,24.38
2022-11-04T06:07:59.486Z,24.47
2022-11-04T06:09:59.455Z,24.25
2022-11-04T06:11:59.505Z,24.26
2022-11-04T06:13:59.305Z,24.24
2022-11-04T06:15:59.430Z,24.20
2022-11-04T06:17:59.422Z,24.19
2022-11-04T06:19:59.476Z,24.25
2022-11-04T06:21:59.482Z,24.11
2022-11-04T06:23:59.350Z,24.33
2022-11-04T06:25:59.474Z,24.20
2022-11-04T06:27:59.373Z,24.20
2022-11-04T06:29:59.471Z,24.27
2022-11-04T06:31:59.317Z,24.22
2022-11-04T06:33:59.479Z,24.23
2022-11-04T06:35:59.452Z,24.15
2022-11-04T06:37:59.370Z,24.15
2022-11-04T06:39:59.434Z,24.19
2022-11-04T06:41:59.828Z,24.20
2022-11-04T06:43:59.445Z,24.25
2022-11-04T06:45:59.425Z,24.22
2022-11-04T06:47:59.510Z,24.25
2022-11-04T06:49:59.501Z,24.23
2022-11-04T06:51:59.503Z,24.15
2022-11-04T06:53:59.506Z,24.19
2022-11-04T06:55:59.387Z,24.14
2022-11-04T06:57:59.498Z,24.23
2022-11-04T06:59:59.429Z,24.20
2022-11-04T07:01:59.533Z,24.20
2022-11-04T07:03:59.406Z,24.27
2022-11-04T07:05:59.532Z,24.29
2022-11-04T07:07:59.415Z,24.10
2022-11-04T07:09:59.429Z,24.22
2022-11-04T07:11:59.507Z,24.34
2022-11-04T07:13:59.540Z,24.29
2022-11-04T07:15:59.482Z,24.43
2022-11-04T07:17:59.479Z,24.43
2022-11-04T07:19:59.517Z,24.50
2022-11-04T07:21:59.541Z,24.53
2022-11-04T07:23:59.546Z,24.52
2022-11-04T07:25:59.399Z,24.58
2022-11-04T07:28:02.226Z,24.59
2022-11-04T07:29:59.565Z,24.67
2022-11-04T07:31:59.501Z,24.75
2022-11-04T07:33:59.515Z,24.82
2022-11-04T07:35:59.543Z,24.89
2022-11-04T07:37:59.568Z,24.90
2022-11-04T07:39:59.474Z,25.05
2022-11-04T07:41:59.857Z,25.09
2022-11-04T07:43:59.575Z,25.29
2022-11-04T07:45:59.517Z,25.65
2022-11-04T07:47:59.548Z,25.54
2022-11-04T07:49:59.602Z,25.80
2022-11-04T07:51:59.575Z,25.62
2022-11-04T07:53:59.564Z,25.65
2022-11-04T07:55:59.554Z,25.61
2022-11-04T07:57:59.573Z,25.65
2022-11-04T07:59:59.431Z,25.77
2022-11-04T08:01:59.749Z,25.65
2022-11-04T08:03:59.590Z,25.65
2022-11-04T08:05:59.556Z,25.72
2022-11-04T08:07:59.595Z,25.75
2022-11-04T08:09:59.575Z,25.57
2022-11-04T08:11:59.511Z,25.73
2022-11-04T08:13:59.505Z,25.65
2022-11-04T08:15:59.570Z,25.60
2022-11-04T08:17:59.591Z,25.63
2022-11-04T08:19:59.434Z,25.60
2022-11-04T08:21:59.613Z,25.54
2022-11-04T08:23:59.474Z,25.52
2022-11-04T08:25:59.551Z,25.56
2022-11-04T08:28:01.103Z,25.60
2022-11-04T08:29:59.514Z,25.62
2022-11-04T08:31:59.617Z,25.65
2022-11-04T08:33:59.571Z,25.53
2022-11-04T08:35:59.572Z,25.58
2022-11-04T08:37:59.607Z,25.55
2022-11-04T08:39:59.565Z,25.64
2022-11-04T08:41:59.621Z,25.75
2022-11-04T08:43:59.620Z,25.58
2022-11-04T08:45:59.645Z,25.60
2022-11-04T08:48:05.533Z,25.60
2022-11-04T08:49:59.507Z,25.64
2022-11-04T08:51:59.638Z,25.52
2022-11-04T08:53:59.483Z,25.61
2022-11-04T08:55:59.552Z,25.52
2022-11-04T08:57:59.654Z,25.54
2022-11-04T08:59:59.671Z,25.52
2022-11-04T09:01:59.632Z,25.62
2022-11-04T09:03:59.668Z,25.64
2022-11-04T09:05:59.521Z,25.60
2022-11-04T09:07:59.639Z,25.56
2022-11-04T09:09:59.537Z,25.60
2022-11-04T09:11:59.646Z,25.54
2022-11-04T09:13:59.667Z,25.51
2022-11-04T09:15:59.588Z,25.33
2022-11-04T09:17:59.675Z,25.43
2022-11-04T09:19:59.629Z,25.44
2022-11-04T09:21:59.647Z,25.44
2022-11-04T09:23:59.678Z,25.45
2022-11-04T09:25:59.522Z,25.43
2022-11-04T09:27:59.703Z,25.38
2022-11-04T09:29:59.680Z,25.51
2022-11-04T09:31:59.696Z,25.26
2022-11-04T09:33:59.675Z,25.26
2022-11-04T09:35:59.673Z,25.37
2022-11-04T09:37:59.635Z,25.31
2022-11-04T09:39:59.638Z,25.44
2022-11-04T09:41:59.685Z,25.37
2022-11-04T09:43:59.707Z,25.46
2022-11-04T09:45:59.610Z,25.42
2022-11-04T09:47:59.712Z,25.45
2022-11-04T09:49:59.665Z,25.37
2022-11-04T09:51:59.632Z,25.40
2022-11-04T09:53:59.713Z,25.26
2022-11-04T09:55:59.704Z,25.44
2022-11-04T09:57:59.680Z,25.37
2022-11-04T09:59:59.696Z,25.13
2022-11-04T10:01:59.756Z,25.18
2022-11-04T10:03:59.698Z,25.22
2022-11-04T10:05:59.719Z,25.29
2022-11-04T10:07:59.717Z,25.47
2022-11-04T10:09:59.708Z,25.42
2022-11-04T10:11:59.751Z,25.32
2022-11-04T10:13:59.604Z,25.40
2022-11-04T10:15:59.754Z,25.43
2022-11-04T10:17:59.729Z,25.54
2022-11-04T10:19:59.595Z,25.52
2022-11-04T10:21:59.714Z,25.52
2022-11-04T10:23:59.532Z,25.50
2022-11-04T10:25:59.705Z,25.49
2022-11-04T10:27:59.740Z,25.39
2022-11-04T10:29:59.715Z,25.41
2022-11-04T10:31:59.757Z,25.43
2022-11-04T10:33:59.750Z,25.37
2022-11-04T10:35:59.605Z,25.46
2022-11-04T10:37:59.702Z,25.45
2022-11-04T10:39:59.681Z,25.46
2022-11-04T10:41:59.798Z,25.52
2022-11-04T10:43:59.778Z,25.34
2022-11-04T10:45:59.732Z,25.29
2022-11-04T10:47:59.751Z,25.45
2022-11-04T10:50:27.193Z,25.47
2022-11-04T10:51:59.641Z,25.40
2022-11-04T10:53:59.768Z,25.37
2022-11-04T10:55:59.779Z,25.34
2022-11-04T10:57:59.781Z,25.45
2022-11-04T10:59:59.607Z,25.36
2022-11-04T11:02:00.010Z,25.37
2022-11-04T11:03:59.757Z,25.32
2022-11-04T11:05:59.790Z,25.28
2022-11-04T11:07:59.764Z,25.25
2022-11-04T11:09:59.670Z,25.21
2022-11-04T11:11:59.773Z,25.52
2022-11-04T11:13:59.766Z,25.60
2022-11-04T11:15:59.791Z,25.60
2022-11-04T11:17:59.660Z,25.65
2022-11-04T11:19:59.778Z,24.95
2022-11-04T11:21:59.790Z,25.23
2022-11-04T11:23:59.687Z,25.57
2022-11-04T11:25:59.688Z,25.65
2022-11-04T11:27:59.696Z,25.65
2022-11-04T11:29:59.690Z,25.64
2022-11-04T11:31:59.778Z,25.72
2022-11-04T11:33:59.812Z,25.64
2022-11-04T11:35:59.807Z,25.65
2022-11-04T11:37:59.832Z,25.51
2022-11-04T11:39:59.751Z,25.52
2022-11-04T11:41:59.804Z,25.63
2022-11-04T11:43:59.787Z,25.65
2022-11-04T11:45:59.808Z,25.71
2022-11-04T11:47:59.803Z,25.60
2022-11-04T11:49:59.896Z,25.34
2022-11-04T11:51:59.694Z,25.19
2022-11-04T11:53:59.778Z,25.24
2022-11-04T11:55:59.813Z,25.39
2022-11-04T12:01:59.892Z,25.33
2022-11-04T12:09:59.844Z,25.23
2022-11-04T12:11:59.810Z,25.26
2022-11-04T12:13:59.810Z,25.26
2022-11-04T12:15:59.807Z,25.53
2022-11-04T12:17:59.859Z,25.74
2022-11-04T12:19:59.820Z,25.71
2022-11-04T12:21:59.698Z,25.56
2022-11-04T12:23:59.851Z,25.64
2022-11-04T12:25:59.867Z,25.65
2022-11-04T12:27:59.743Z,25.74
2022-11-04T12:29:59.776Z,25.72
2022-11-04T12:31:59.890Z,25.65
2022-11-04T12:33:59.856Z,25.54
2022-11-04T12:35:59.875Z,25.72
2022-11-04T12:37:59.865Z,25.58
2022-11-04T12:39:59.786Z,25.54
2022-11-04T12:42:20.249Z,25.47
2022-11-04T12:43:59.850Z,25.46
2022-11-04T12:45:59.808Z,25.52
2022-11-04T12:47:59.879Z,25.60
2022-11-04T12:49:59.887Z,25.60
2022-11-04T12:51:59.884Z,25.42
2022-11-04T12:53:59.897Z,25.58
2022-11-04T12:55:59.798Z,25.53
2022-11-04T12:57:59.801Z,25.65
2022-11-04T12:59:59.909Z,25.65
2022-11-04T13:02:00.035Z,25.53
2022-11-04T13:03:59.870Z,25.63
2022-11-04T13:05:59.783Z,25.38
2022-11-04T13:07:59.902Z,25.31
2022-11-04T13:09:59.910Z,25.38
2022-11-04T13:11:59.934Z,25.36
2022-11-04T13:14:02.068Z,25.23
2022-11-04T13:15:59.812Z,25.23
2022-11-04T13:17:59.797Z,25.25
2022-11-04T13:19:59.885Z,25.29
2022-11-04T13:21:59.849Z,25.33
2022-11-04T13:23:59.920Z,25.23
2022-11-04T13:25:59.941Z,25.25
2022-11-04T13:27:59.747Z,25.26
2022-11-04T13:29:59.835Z,25.24
2022-11-04T13:31:59.948Z,25.24
2022-11-04T13:33:59.896Z,25.32
2022-11-04T13:35:59.720Z,25.24
2022-11-04T13:37:59.942Z,25.37
2022-11-04T13:39:59.935Z,25.29
2022-11-04T13:42:00.027Z,25.35
2022-11-04T13:43:59.952Z,25.46
2022-11-04T13:45:59.957Z,25.37
2022-11-04T13:47:59.924Z,25.29
2022-11-04T13:49:59.995Z,25.31
2022-11-04T13:51:59.758Z,25.40
2022-11-04T13:53:59.779Z,25.32
2022-11-04T13:56:20.909Z,25.37
2022-11-04T13:57:59.992Z,25.31
2022-11-04T13:59:59.937Z,25.29
2022-11-04T14:01:59.897Z,25.35
2022-11-04T14:03:59.941Z,25.23
2022-11-04T14:05:59.976Z,25.47
2022-11-04T14:07:59.966Z,25.46
2022-11-04T14:09:59.969Z,25.49
2022-11-04T14:11:59.909Z,25.37
2022-11-04T14:13:59.937Z,25.37
2022-11-04T14:15:59.935Z,25.48
2022-11-04T14:17:59.984Z,25.35
2022-11-04T14:19:59.983Z,25.26
2022-11-04T14:21:59.913Z,25.26
2022-11-04T14:23:59.903Z,25.22
2022-11-04T14:26:00.010Z,25.15
2022-11-04T14:27:59.989Z,25.18
2022-11-04T14:29:59.987Z,25.20
2022-11-04T14:32:00.000Z,25.04
2022-11-04T14:34:01.189Z,25.17
2022-11-04T14:36:00.052Z,25.18
2022-11-04T14:38:00.032Z,25.26
2022-11-04T14:39:59.916Z,25.35
2022-11-04T14:42:00.022Z,25.34
2022-11-04T14:43:59.963Z,25.37
2022-11-04T14:45:59.978Z,25.47
2022-11-04T14:48:00.033Z,25.49
2022-11-04T14:50:00.030Z,25.52
2022-11-04T14:52:00.039Z,25.52
2022-11-04T14:53:59.891Z,25.48
2022-11-04T14:56:00.026Z,25.47
2022-11-04T14:58:00.004Z,25.50
2022-11-04T15:00:00.040Z,25.49
2022-11-04T15:01:59.977Z,25.51
2022-11-04T15:04:12.533Z,25.54
2022-11-04T15:06:00.002Z,25.58
2022-11-04T15:08:00.042Z,25.54
2022-11-04T15:09:59.986Z,25.52
2022-11-04T15:12:00.025Z,25.57
2022-11-04T15:14:00.048Z,25.52
2022-11-04T15:15:59.941Z,25.51
2022-11-04T15:18:00.084Z,25.36
2022-11-04T15:19:59.947Z,25.14
2022-11-04T15:22:00.007Z,25.23
2022-11-04T15:23:59.976Z,25.29
2022-11-04T15:26:00.081Z,25.21
2022-11-04T15:28:00.002Z,25.18
2022-11-04T15:30:00.061Z,25.23
2022-11-04T15:31:59.907Z,25.13
2022-11-04T15:33:59.949Z,25.12
2022-11-04T15:36:00.070Z,24.90
2022-11-04T15:38:00.134Z,24.68
2022-11-04T15:40:00.101Z,24.66
2022-11-04T15:42:00.131Z,24.57
2022-11-04T15:44:00.097Z,24.52
2022-11-04T15:46:00.063Z,24.51
2022-11-04T15:47:59.961Z,24.54
2022-11-04T15:49:59.916Z,24.38
2022-11-04T15:52:00.060Z,24.40
2022-11-04T15:54:00.078Z,24.30
2022-11-04T15:56:00.079Z,24.37
2022-11-04T15:57:59.934Z,24.22
2022-11-04T15:59:59.959Z,24.26
2022-11-04T16:02:00.198Z,24.20
2022-11-04T16:04:00.052Z,24.18
2022-11-04T16:06:00.041Z,24.15
2022-11-04T16:08:00.024Z,24.10
2022-11-04T16:10:04.096Z,24.10
2022-11-04T16:12:00.119Z,24.12
2022-11-04T16:14:00.115Z,24.20
2022-11-04T16:16:00.083Z,24.18
2022-11-04T16:18:00.096Z,24.02
2022-11-04T16:20:00.119Z,24.05
2022-11-04T16:22:00.113Z,24.09
2022-11-04T16:24:00.159Z,24.18
2022-11-04T16:26:00.127Z,27.22
2022-11-04T16:28:00.773Z,25.65
2022-11-04T16:30:00.210Z,25.80
2022-11-04T16:32:02.728Z,25.79
2022-11-04T16:34:00.091Z,25.80
2022-11-04T16:36:00.023Z,25.80
2022-11-04T16:38:00.101Z,25.75
2022-11-04T16:40:00.219Z,25.92
2022-11-04T16:42:00.205Z,25.83
2022-11-04T16:44:00.416Z,25.93
2022-11-04T16:46:00.119Z,25.83
2022-11-04T16:48:00.024Z,25.80
2022-11-04T16:50:00.145Z,25.86
2022-11-04T16:52:00.186Z,25.82
2022-11-04T16:54:00.138Z,25.80
2022-11-04T16:56:00.115Z,25.80
2022-11-04T16:58:00.174Z,25.80
2022-11-04T17:00:00.173Z,25.80
2022-11-04T17:02:00.361Z,25.83
2022-11-04T17:04:00.140Z,25.82
2022-11-04T17:06:00.078Z,25.90
2022-11-04T17:08:05.097Z,25.79
2022-11-04T17:10:00.167Z,25.95
2022-11-04T17:12:00.201Z,25.83
2022-11-04T17:14:00.116Z,25.82
2022-11-04T17:16:00.184Z,25.72
2022-11-04T17:18:00.035Z,25.80
2022-11-04T17:20:00.086Z,25.52
2022-11-04T17:22:00.122Z,25.81
2022-11-04T17:24:00.215Z,25.79
2022-11-04T17:26:00.008Z,25.84
2022-11-04T17:28:00.107Z,25.83
2022-11-04T17:30:00.191Z,25.75
2022-11-04T17:32:00.085Z,25.80
2022-11-04T17:34:00.093Z,25.75
2022-11-04T17:36:06.326Z,25.75
2022-11-04T17:38:00.281Z,25.80
2022-11-04T17:40:00.207Z,25.83
2022-11-04T17:42:00.135Z,25.79
2022-11-04T17:44:00.206Z,25.79
2022-11-04T17:46:00.112Z,25.80
2022-11-04T17:48:00.238Z,25.88
2022-11-04T17:50:00.190Z,25.82
2022-11-04T17:52:00.103Z,25.75
2022-11-04T17:54:00.204Z,25.81
2022-11-04T17:56:00.220Z,25.80
2022-11-04T17:58:00.077Z,25.78
2022-11-04T18:00:00.263Z,25.72
2022-11-04T18:02:00.264Z,25.81
2022-11-04T18:04:00.259Z,25.63
2022-11-04T18:06:00.184Z,25.78
2022-11-04T18:08:00.266Z,25.65
2022-11-04T18:10:00.270Z,25.78
2022-11-04T18:12:00.263Z,25.80
2022-11-04T18:14:00.142Z,25.75
2022-11-04T18:16:00.289Z,25.62
2022-11-04T18:18:00.291Z,25.72
2022-11-04T18:20:00.207Z,25.75
2022-11-04T18:22:00.257Z,25.84
2022-11-04T18:24:00.123Z,25.89
2022-11-04T18:26:00.271Z,25.77
2022-11-04T18:28:00.267Z,25.82
2022-11-04T18:30:00.210Z,25.65
2022-11-04T18:32:00.247Z,25.65
2022-11-04T18:34:00.257Z,25.65
2022-11-04T18:36:00.284Z,25.63
2022-11-04T18:38:00.240Z,25.54
2022-11-04T18:40:00.261Z,25.63
2022-11-04T18:42:00.280Z,25.61
2022-11-04T18:44:00.254Z,25.57
2022-11-04T18:46:00.300Z,25.65
2022-11-04T18:48:00.292Z,25.60
2022-11-04T18:50:00.275Z,25.64
2022-11-04T18:52:00.301Z,25.65
2022-11-04T18:54:00.279Z,25.75
2022-11-04T18:56:01.019Z,25.76
2022-11-04T18:58:00.292Z,25.75
2022-11-04T19:00:00.155Z,25.75
2022-11-04T19:02:00.505Z,25.77
2022-11-04T19:04:00.203Z,25.83
2022-11-04T19:06:00.289Z,25.94
2022-11-04T19:08:00.277Z,25.78
2022-11-04T19:10:00.824Z,25.80
2022-11-04T19:12:01.022Z,25.88
2022-11-04T19:14:03.850Z,25.85
2022-11-04T19:16:00.277Z,25.78
2022-11-04T19:18:00.263Z,25.80
2022-11-04T19:20:00.296Z,25.83
2022-11-04T19:22:00.203Z,25.93
2022-11-04T19:24:00.367Z,25.78
2022-11-04T19:26:02.366Z,25.80
2022-11-04T19:28:31.487Z,25.81
2022-11-04T19:30:00.261Z,25.79
2022-11-04T19:32:00.346Z,25.79
2022-11-04T19:34:00.330Z,25.78
2022-11-04T19:36:00.336Z,25.85
2022-11-04T19:38:00.345Z,25.85
2022-11-04T19:40:00.316Z,25.81
2022-11-04T19:42:00.224Z,25.86
2022-11-04T19:44:00.124Z,25.88
2022-11-04T19:46:04.428Z,25.86
2022-11-04T19:48:00.405Z,25.86
2022-11-04T19:50:00.304Z,25.92
2022-11-04T19:52:00.320Z,25.77
2022-11-04T19:54:00.202Z,25.71
2022-11-04T19:56:00.385Z,25.47
2022-11-04T19:58:00.236Z,25.72
2022-11-04T20:00:00.305Z,25.80
2022-11-04T20:02:00.629Z,25.77
2022-11-04T20:04:00.340Z,25.78
2022-11-04T20:06:00.377Z,25.76
2022-11-04T20:08:05.730Z,25.82
2022-11-04T20:10:00.345Z,25.80
2022-11-04T20:12:00.356Z,25.91
2022-11-04T20:14:06.447Z,25.83
2022-11-04T20:16:00.327Z,25.80
2022-11-04T20:18:00.380Z,25.80
2022-11-04T20:20:00.453Z,25.81
2022-11-04T20:22:00.371Z,25.80
2022-11-04T20:24:00.332Z,25.83
2022-11-04T20:26:00.433Z,25.77
2022-11-04T20:28:00.309Z,25.90
2022-11-04T20:30:00.380Z,25.88
2022-11-04T20:32:00.267Z,25.90
2022-11-04T20:34:00.359Z,25.79
2022-11-04T20:36:00.436Z,25.86
2022-11-04T20:38:00.468Z,25.78
2022-11-04T20:40:00.382Z,25.84
2022-11-04T20:42:00.399Z,25.90
2022-11-04T20:44:00.405Z,25.84
2022-11-04T20:46:00.289Z,25.75
2022-11-04T20:48:00.370Z,25.75
2022-11-04T20:50:00.367Z,25.88
2022-11-04T20:52:00.448Z,25.79
2022-11-04T20:54:00.668Z,25.92
2022-11-04T20:56:00.428Z,25.88
2022-11-04T20:58:00.285Z,25.77
2022-11-04T21:00:00.387Z,25.81
2022-11-04T21:02:00.503Z,25.74
2022-11-04T21:04:00.528Z,25.76
2022-11-04T21:06:00.448Z,25.82
2022-11-04T21:08:00.277Z,25.91
2022-11-04T21:10:00.731Z,25.72
2022-11-04T21:12:00.526Z,25.76
2022-11-04T21:14:00.577Z,25.72
2022-11-04T21:16:00.455Z,25.81
2022-11-04T21:18:00.590Z,25.64
2022-11-04T21:20:00.416Z,25.75
2022-11-04T21:22:00.455Z,25.60
2022-11-04T21:24:00.499Z,25.80
2022-11-04T21:26:00.497Z,25.80
2022-11-04T21:28:00.398Z,25.93
2022-11-04T21:30:00.499Z,25.80
2022-11-04T21:32:00.485Z,25.65
2022-11-04T21:34:00.358Z,25.83
2022-11-04T21:36:00.658Z,25.75
2022-11-04T21:38:00.468Z,25.80
2022-11-04T21:40:00.454Z,25.85
2022-11-04T21:42:00.553Z,25.90
2022-11-04T21:44:00.539Z,25.80
2022-11-04T21:46:00.586Z,25.76
2022-11-04T21:48:00.496Z,25.78
2022-11-04T21:50:03.403Z,25.65
2022-11-04T21:52:00.497Z,25.83
2022-11-04T21:54:00.358Z,25.86
2022-11-04T21:56:00.436Z,25.85
2022-11-04T21:58:00.362Z,25.78
2022-11-04T22:00:00.380Z,25.75
2022-11-04T22:02:00.615Z,25.84
2022-11-04T22:04:00.616Z,25.72
2022-11-04T22:06:00.481Z,25.78
2022-11-04T22:08:00.535Z,25.65
2022-11-04T22:10:00.376Z,25.63
2022-11-04T22:12:00.351Z,25.80
2022-11-04T22:14:00.339Z,25.65
2022-11-04T22:16:00.485Z,25.75
2022-11-04T22:18:00.568Z,25.65
2022-11-04T22:20:00.510Z,25.75
2022-11-04T22:22:00.603Z,25.62
2022-11-04T22:24:00.543Z,25.65
2022-11-04T22:26:00.507Z,25.56
2022-11-04T22:28:00.429Z,25.65
2022-11-04T22:30:00.434Z,25.72
2022-11-04T22:32:00.582Z,25.80
2022-11-04T22:34:00.474Z,25.83
2022-11-04T22:36:00.534Z,25.60
2022-11-04T22:38:00.470Z,25.63
2022-11-04T22:40:00.573Z,25.54
2022-11-04T22:42:00.512Z,25.75
2022-11-04T22:44:00.399Z,25.74
2022-11-04T22:46:00.426Z,25.83
2022-11-04T22:48:01.040Z,25.65
2022-11-04T22:50:00.453Z,25.77
2022-11-04T22:52:00.611Z,25.65
2022-11-04T22:54:07.648Z,25.65
2022-11-04T22:56:00.610Z,25.72
2022-11-04T22:58:00.451Z,25.72
2022-11-04T23:00:00.507Z,25.64
2022-11-04T23:02:00.643Z,25.65
2022-11-04T23:04:00.664Z,25.75
2022-11-04T23:06:00.540Z,25.65
2022-11-04T23:08:00.519Z,25.63
2022-11-04T23:10:00.610Z,25.75
2022-11-04T23:12:00.573Z,25.65
2022-11-04T23:14:00.443Z,25.75
2022-11-04T23:16:00.551Z,25.76
2022-11-04T23:18:00.451Z,25.60
2022-11-04T23:20:00.655Z,25.75
2022-11-04T23:22:00.526Z,25.63
2022-11-04T23:24:00.514Z,25.77
2022-11-04T23:26:00.565Z,25.72
2022-11-04T23:28:00.559Z,25.80
2022-11-04T23:30:00.496Z,25.80
2022-11-04T23:32:00.571Z,25.75
2022-11-04T23:34:00.576Z,25.79
2022-11-04T23:36:00.595Z,25.75
2022-11-04T23:38:00.528Z,25.86
2022-11-04T23:40:00.596Z,25.75
2022-11-04T23:42:00.455Z,25.78
2022-11-04T23:44:00.456Z,25.83
2022-11-04T23:46:00.482Z,25.80
2022-11-04T23:48:00.542Z,25.74
2022-11-04T23:50:00.607Z,25.83
2022-11-04T23:52:00.593Z,25.79
2022-11-04T23:54:00.626Z,25.75
2022-11-04T23:56:00.591Z,25.81
2022-11-04T23:58:00.634Z,25.78
